Campo di Volo "Al Ranch"

IT-0402 · Friuli Venezia Giulia, 意大利

罗盘
风向 的 风向 030°
风: 2 kt, 1 beaufort

添加一条跑道以查看侧风和逆风信息。

添置 跑道
0 1.000 2.000 3.000 4.000 5.000
SCT 2.000 ft
BKN 4.000 ft
SPECI LIPI 012255Z 03002KT 9999 -RA SCT020 BKN040 06/04 Q1019 RMK OVC VIS MIN 9999 WIND THR06 07003KT WIND THR24 05002KT BLU

METAR Campo di Volo "Al Ranch" - IT-0402

Campo di Volo "Al Ranch"是,意大利中的小机场。 该领域的国际民航组织标志是IT-0402.

这份报告是针对2022年12月1日 23:55, 当地时间在Rivolto Air Base进行的。

机场观察

风向为030°,速度为2 kt。

可见度为10 km 或者更多。

有疏云,零星散落的云朵在2.000 ft的高度 和 碎云在4.000 ft的高度。 破损或更高的上限为4.000 ft。

当前天气为光 雨。 温度为6 °C,阵风为5 °C。 露点为4 °C,相对湿度为87%。 海平面上的气压为1019 hPa (QNH)。

白天

今天,太阳从07:28升起,在16:24降落。 这适用于Campo di Volo "Al Ranch",世界夏令时可能有所不同。 当地时间与世界标准时间之间的时差为+1 小时。 当前,没有夏令时有效。

公司介绍

我们没有关于这个机场的公司信息。

体会

到Vliegles.nl去找飞行课程,跳伞和其他飞行体验。 浏览页面,了解Campo di Volo "Al Ranch"附近所有可用的活动。 你也可以使用搜索功能来寻找你所在地附近的特定飞行课程、跳伞或其他飞行体验。

乌云

2.000 ft SCT 疏云,零星散落的云朵
4.000 ft BKN 碎云

温度 & 天气

天气 光 雨
温度 6 °C
露点 4 °C
相对湿度 87%
风寒 5 °C
Kp-index 4 (0-9)

评论

OVC VIS MIN 9999 WIND THR06 07003KT WIND THR24 05002KT

白天

日出
07:29 (6:41)
中午
11:56
日落
16:24

小工具

你想在你的网站上有一个关于Campo di Volo "Al Ranch"的当前航空天气(METAR)的小部件吗?

显示HTML代码

我们和第三方通过cookies跟踪您在我们网站上的互联网行为。如果你继续,我们认为你同意我们的饼干政策